Главная страница
METAR-TAF:

METAR-TAF

Аэропорты :

Каракас, Венесуэла

широта: 10-36N, долгота: 066-59W, высота над уровнем моря: 43 м

Текущие метеонаблюдения

Эта сводка был подготовлена 56 минут назад, в 05:00 UTC
Штиль
Температура 24°C
Влажность 89%
Давление 1011 hPa
Видимость 10 км и более
небольшая облачность на высоте 1600 фута

METAR: SVMI 230500Z 00000KT 9999 FEW016 24/22 Q1011

Время: 01:56 (05:56 UTC)

Прогноз

Эта сводка был подготовлена 13 часа и 56 минут назад, в 16:00 UTC
Прогноз действительный с 22-го 18 UTC до 23-го 18 UTC
Ветер 8 Узел переменных направлений
Видимость 10 км и более
Отдельные облака на высоте 1600 фута
Отдельные облака на высоте 10000 фута
временами
С 22-го 20 UTC до 23-го 02 UTC
Отдельные облака на высоте 1300 фута
Отдельные облака на высоте 7000 фута
Морось

TAF: SVMI 221600Z 2218/2318 VRB08KT 9999 SCT016 SCT100 TX30/20Z TN24/11 TEMPO 2220/2302 DZ SCT013 SCT070

Метеонаблюдения и прогнозы для более 4000 аэропортов (сводки METAR и TAF).

Имеющиеся станции представлены на карте желтыми и красными точками.

Чтобы увидеть название станции, наведите на нее мышь.

Затем щелкните, чтобы увидеть метеонаблюдения и метеопрогнозы.

Управление картой: чтобы увеличить масштаб, щелкните зеленые кнопки с черным крестиком; чтобы уменьшить масштаб, щелкните зеленую кнопку с тире; для просмотра соседних карт щелкайте зеленые стрелки.


METAR-TAF: